createdAt,value
2019-02-28T00:01:04.387Z,8.10
2019-02-28T00:03:34.153Z,8.00
2019-02-28T00:06:03.432Z,8.00
2019-02-28T00:08:32.701Z,8.00
2019-02-28T00:11:06.042Z,7.90
2019-02-28T00:13:35.763Z,7.90
2019-02-28T00:16:04.856Z,7.90
2019-02-28T00:18:35.085Z,7.90
2019-02-28T00:21:06.941Z,7.90
2019-02-28T00:23:35.986Z,7.80
2019-02-28T00:26:04.744Z,7.80
2019-02-28T00:28:34.101Z,7.80
2019-02-28T00:31:02.880Z,7.80
2019-02-28T00:33:31.801Z,7.80
2019-02-28T00:36:00.823Z,7.80
2019-02-28T00:38:32.588Z,7.80
2019-02-28T00:41:01.455Z,7.70
2019-02-28T00:43:30.345Z,7.70
2019-02-28T00:45:59.475Z,7.70
2019-02-28T00:48:28.449Z,7.60
2019-02-28T00:50:58.491Z,7.60
2019-02-28T00:53:28.651Z,7.60
2019-02-28T00:55:57.955Z,7.50
2019-02-28T00:58:28.952Z,7.50
2019-02-28T01:00:57.865Z,7.50
2019-02-28T01:03:27.592Z,7.40
2019-02-28T01:05:56.916Z,7.40
2019-02-28T01:08:26.166Z,7.40
2019-02-28T01:10:55.143Z,7.40
2019-02-28T01:13:27.324Z,7.40
2019-02-28T01:15:54.597Z,7.40
2019-02-28T01:18:24.583Z,7.30
2019-02-28T01:20:53.570Z,7.30
2019-02-28T01:23:22.456Z,7.30
2019-02-28T01:25:52.136Z,7.30
2019-02-28T01:28:23.372Z,7.30
2019-02-28T01:30:52.209Z,7.20
2019-02-28T01:33:24.637Z,7.20
2019-02-28T01:35:51.708Z,7.20
2019-02-28T01:38:23.877Z,7.20
2019-02-28T01:40:52.539Z,7.10
2019-02-28T01:43:21.546Z,7.10
2019-02-28T01:45:50.711Z,7.10
2019-02-28T01:48:22.618Z,7.10
2019-02-28T01:50:50.899Z,7.10
2019-02-28T01:53:20.349Z,7.10
2019-02-28T01:55:49.611Z,7.00
2019-02-28T01:58:19.436Z,7.00
2019-02-28T02:00:48.797Z,7.00
2019-02-28T02:03:17.966Z,6.90
2019-02-28T02:05:48.331Z,6.90
2019-02-28T02:08:18.396Z,6.90
2019-02-28T02:10:47.524Z,6.90
2019-02-28T02:13:16.891Z,6.80
2019-02-28T02:15:50.906Z,6.80
2019-02-28T02:18:17.365Z,6.80
2019-02-28T02:20:46.515Z,6.80
2019-02-28T02:23:18.057Z,6.80
2019-02-28T02:25:47.447Z,6.70
2019-02-28T02:28:16.952Z,6.70
2019-02-28T02:30:50.432Z,6.70
2019-02-28T02:33:17.764Z,6.70
2019-02-28T02:35:46.697Z,6.70
2019-02-28T02:38:15.868Z,6.70
2019-02-28T02:40:44.948Z,6.70
2019-02-28T02:43:14.493Z,6.60
2019-02-28T02:45:43.928Z,6.60
2019-02-28T02:48:13.372Z,6.60
2019-02-28T02:50:42.668Z,6.60
2019-02-28T02:53:11.623Z,6.60
2019-02-28T02:55:40.770Z,6.50
2019-02-28T02:58:09.801Z,6.50
2019-02-28T03:00:39.220Z,6.50
2019-02-28T03:03:08.295Z,6.50
2019-02-28T03:05:37.395Z,6.50
2019-02-28T03:08:06.708Z,6.50
2019-02-28T03:10:35.572Z,6.50
2019-02-28T03:13:06.020Z,6.50
2019-02-28T03:15:35.373Z,6.40
2019-02-28T03:18:04.562Z,6.40
2019-02-28T03:20:33.954Z,6.40
2019-02-28T03:23:03.346Z,6.40
2019-02-28T03:25:32.519Z,6.40
2019-02-28T03:28:01.664Z,6.40
2019-02-28T03:30:32.951Z,6.40
2019-02-28T03:33:01.888Z,6.40
2019-02-28T03:35:40.042Z,6.30
2019-02-28T03:38:01.310Z,6.30
2019-02-28T03:40:30.926Z,6.30
2019-02-28T03:43:05.291Z,6.30
2019-02-28T03:45:35.162Z,6.30
2019-02-28T03:48:02.055Z,6.20
2019-02-28T03:50:31.222Z,6.10
2019-02-28T03:53:00.347Z,6.10
2019-02-28T03:55:29.852Z,6.10
2019-02-28T03:58:04.391Z,6.10
2019-02-28T04:00:34.015Z,6.00
2019-02-28T04:03:01.814Z,6.00
2019-02-28T04:05:30.972Z,6.00
2019-02-28T04:08:00.151Z,5.90
2019-02-28T04:10:29.601Z,5.90
2019-02-28T04:12:59.946Z,5.90
2019-02-28T04:15:28.872Z,5.90
2019-02-28T04:17:58.239Z,5.90
2019-02-28T04:20:27.855Z,5.90
2019-02-28T04:22:59.806Z,5.80
2019-02-28T04:25:27.847Z,5.80
2019-02-28T04:27:56.706Z,5.80
2019-02-28T04:30:26.382Z,5.80
2019-02-28T04:33:01.073Z,5.80
2019-02-28T04:35:26.567Z,5.70
2019-02-28T04:37:56.143Z,5.70
2019-02-28T04:40:26.909Z,5.60
2019-02-28T04:42:56.475Z,5.60
2019-02-28T04:45:26.443Z,5.60
2019-02-28T04:47:56.258Z,5.60
2019-02-28T04:50:31.306Z,5.60
2019-02-28T04:52:56.833Z,5.50
2019-02-28T04:55:26.134Z,5.50
2019-02-28T04:57:55.453Z,5.50
2019-02-28T05:00:24.321Z,5.50
2019-02-28T05:02:55.021Z,5.40
2019-02-28T05:05:24.267Z,5.40
2019-02-28T05:07:53.710Z,5.40
2019-02-28T05:10:23.037Z,5.40
2019-02-28T05:12:52.016Z,5.30
2019-02-28T05:15:21.246Z,5.30
2019-02-28T05:17:53.149Z,5.30
2019-02-28T05:20:21.440Z,5.20
2019-02-28T05:22:50.383Z,5.30
2019-02-28T05:25:19.741Z,5.20
2019-02-28T05:27:48.683Z,5.20
2019-02-28T05:30:19.631Z,5.20
2019-02-28T05:32:48.690Z,5.20
2019-02-28T05:35:17.728Z,5.20
2019-02-28T05:37:48.497Z,5.20
2019-02-28T05:40:18.170Z,5.20
2019-02-28T05:42:47.032Z,5.10
2019-02-28T05:45:15.973Z,5.10
2019-02-28T05:47:47.201Z,5.00
2019-02-28T05:50:17.258Z,5.00
2019-02-28T05:52:46.895Z,5.00
2019-02-28T05:55:16.225Z,5.00
2019-02-28T05:57:45.103Z,5.00
2019-02-28T06:00:16.036Z,5.00
2019-02-28T06:02:45.268Z,4.90
2019-02-28T06:05:14.990Z,5.00
2019-02-28T06:07:43.885Z,4.90
2019-02-28T06:10:13.257Z,4.90
2019-02-28T06:12:43.963Z,4.90
2019-02-28T06:15:15.687Z,4.80
2019-02-28T06:17:49.046Z,4.80
2019-02-28T06:20:18.250Z,4.80
2019-02-28T06:22:48.077Z,4.80
2019-02-28T06:25:23.878Z,4.80
2019-02-28T06:27:50.273Z,4.80
2019-02-28T06:30:19.060Z,4.80
2019-02-28T06:32:50.195Z,4.80
2019-02-28T06:35:20.478Z,4.80
2019-02-28T06:37:50.319Z,4.90
2019-02-28T06:40:19.613Z,4.80
2019-02-28T06:42:48.944Z,4.90
2019-02-28T06:45:18.602Z,4.90
2019-02-28T06:47:49.555Z,4.90
2019-02-28T06:50:18.880Z,4.90
2019-02-28T06:52:47.810Z,4.90
2019-02-28T06:55:21.534Z,4.90
2019-02-28T06:57:50.811Z,5.00
2019-02-28T07:00:20.066Z,5.10
2019-02-28T07:02:50.431Z,5.10
2019-02-28T07:05:24.443Z,5.20
2019-02-28T07:07:50.701Z,5.30
2019-02-28T07:10:19.892Z,5.40
2019-02-28T07:12:49.061Z,5.40
2019-02-28T07:15:23.233Z,5.50
2019-02-28T07:17:48.960Z,5.50
2019-02-28T07:20:18.315Z,5.60
2019-02-28T07:22:54.459Z,5.60
2019-02-28T07:25:20.259Z,5.60
2019-02-28T07:27:49.884Z,5.60
2019-02-28T07:30:19.456Z,5.70
2019-02-28T07:32:48.723Z,5.70
2019-02-28T07:35:17.797Z,5.70
2019-02-28T07:37:53.227Z,5.70
2019-02-28T07:40:20.032Z,5.80
2019-02-28T07:42:48.952Z,5.80
2019-02-28T07:45:18.305Z,5.80
2019-02-28T07:47:51.499Z,5.80
2019-02-28T07:50:18.558Z,5.80
2019-02-28T07:52:47.787Z,5.80
2019-02-28T07:55:16.848Z,5.80
2019-02-28T07:57:51.171Z,5.80
2019-02-28T08:00:20.175Z,5.90
2019-02-28T08:02:51.240Z,5.90
2019-02-28T08:05:20.455Z,5.90
2019-02-28T08:07:52.495Z,5.90
2019-02-28T08:10:24.163Z,6.00
2019-02-28T08:12:53.154Z,6.00
2019-02-28T08:15:23.405Z,6.00
2019-02-28T08:17:52.952Z,6.00
2019-02-28T08:20:22.816Z,6.00
2019-02-28T08:22:56.416Z,6.10
2019-02-28T08:25:25.194Z,6.10
2019-02-28T08:27:59.138Z,6.10
2019-02-28T08:30:25.234Z,6.10
2019-02-28T08:32:54.814Z,6.10
2019-02-28T08:35:24.389Z,6.10
2019-02-28T08:37:57.434Z,6.20
2019-02-28T08:40:27.186Z,6.20
2019-02-28T08:42:56.776Z,6.20
2019-02-28T08:45:32.528Z,6.20
2019-02-28T08:47:58.847Z,6.30
2019-02-28T08:50:28.211Z,6.30
2019-02-28T08:52:58.838Z,6.30
2019-02-28T08:55:29.345Z,6.40
2019-02-28T08:58:19.508Z,6.40
2019-02-28T09:00:48.464Z,6.40
2019-02-28T09:03:17.592Z,6.40
2019-02-28T09:05:49.571Z,6.50
2019-02-28T09:08:18.800Z,6.50
2019-02-28T09:10:48.081Z,6.50
2019-02-28T09:13:17.549Z,6.50
2019-02-28T09:15:50.664Z,6.60
2019-02-28T09:18:19.899Z,6.60
2019-02-28T09:20:49.284Z,6.60
2019-02-28T09:23:18.568Z,6.60
2019-02-28T09:25:47.584Z,6.70
2019-02-28T09:28:16.675Z,6.70
2019-02-28T09:30:46.036Z,6.70
2019-02-28T09:33:15.207Z,6.80
2019-02-28T09:35:46.781Z,6.80
2019-02-28T09:38:16.801Z,6.80
2019-02-28T09:40:46.977Z,6.90
2019-02-28T09:43:16.147Z,6.90
2019-02-28T09:45:45.602Z,6.90
2019-02-28T09:48:14.916Z,6.90
2019-02-28T09:50:44.199Z,6.90
2019-02-28T09:53:16.586Z,6.90
2019-02-28T09:55:44.050Z,7.00
2019-02-28T09:58:13.554Z,7.00
2019-02-28T10:00:43.329Z,7.10
2019-02-28T10:03:15.415Z,7.10
2019-02-28T10:05:44.432Z,7.20
2019-02-28T10:08:13.760Z,7.20
2019-02-28T10:10:43.197Z,7.20
2019-02-28T10:13:14.602Z,7.30
2019-02-28T10:15:43.890Z,7.30
2019-02-28T10:18:12.797Z,7.30
2019-02-28T10:20:42.184Z,7.30
2019-02-28T10:23:11.267Z,7.30
2019-02-28T10:25:43.452Z,7.30
2019-02-28T10:28:11.558Z,7.30
2019-02-28T10:30:41.376Z,7.30
2019-02-28T10:33:10.780Z,7.30
2019-02-28T10:35:40.051Z,7.30
2019-02-28T10:38:09.358Z,7.30
2019-02-28T10:40:38.610Z,7.30
2019-02-28T10:43:08.685Z,7.40
2019-02-28T10:45:40.892Z,7.40
2019-02-28T10:48:11.824Z,7.50
2019-02-28T10:50:40.946Z,7.50
2019-02-28T10:53:10.144Z,7.50
2019-02-28T10:55:39.445Z,7.50
2019-02-28T10:58:08.463Z,7.50
2019-02-28T11:00:41.322Z,7.50
2019-02-28T11:03:11.244Z,7.40
2019-02-28T11:05:41.652Z,7.40
2019-02-28T11:08:14.819Z,7.40
2019-02-28T11:10:44.722Z,7.40
2019-02-28T11:13:15.356Z,7.40
2019-02-28T11:15:47.914Z,7.40
2019-02-28T11:18:15.310Z,7.40
2019-02-28T11:20:44.687Z,7.40
2019-02-28T11:23:15.050Z,7.40
2019-02-28T11:25:45.229Z,7.40
2019-02-28T11:28:14.568Z,7.40
2019-02-28T11:30:45.699Z,7.40
2019-02-28T11:33:14.696Z,7.40
2019-02-28T11:35:48.443Z,7.40
2019-02-28T11:38:21.469Z,7.40
2019-02-28T11:40:57.053Z,7.40
2019-02-28T11:43:21.150Z,7.30
2019-02-28T11:45:50.440Z,7.30
2019-02-28T11:48:20.581Z,7.30
2019-02-28T11:50:51.340Z,7.40
2019-02-28T11:53:23.747Z,7.40
2019-02-28T11:55:54.615Z,7.40
2019-02-28T11:58:23.462Z,7.40
2019-02-28T12:00:53.264Z,7.30
2019-02-28T12:03:22.924Z,7.40
2019-02-28T12:05:52.148Z,7.40
2019-02-28T12:08:22.392Z,7.50
2019-02-28T12:10:51.842Z,7.50
2019-02-28T12:13:21.175Z,7.50
2019-02-28T12:15:50.637Z,7.50
2019-02-28T12:18:19.875Z,7.50
2019-02-28T12:20:49.428Z,7.50
2019-02-28T12:23:23.160Z,7.50
2019-02-28T12:25:51.189Z,7.50
2019-02-28T12:28:20.433Z,7.50
2019-02-28T12:30:50.569Z,7.50
2019-02-28T12:33:23.136Z,7.50
2019-02-28T12:35:51.497Z,7.50
2019-02-28T12:38:21.430Z,7.50
2019-02-28T12:40:51.027Z,7.50
2019-02-28T12:43:21.283Z,7.50
2019-02-28T12:45:50.492Z,7.50
2019-02-28T12:48:20.227Z,7.50
2019-02-28T12:50:50.090Z,7.50
2019-02-28T12:53:24.257Z,7.50
2019-02-28T12:55:52.426Z,7.50
2019-02-28T12:58:22.240Z,7.50
2019-02-28T13:00:51.455Z,7.50
2019-02-28T13:03:22.956Z,7.50
2019-02-28T13:05:53.992Z,7.50
2019-02-28T13:08:23.242Z,7.50
2019-02-28T13:11:03.207Z,7.50
2019-02-28T13:13:29.371Z,7.50
2019-02-28T13:15:58.639Z,7.50
2019-02-28T13:18:34.359Z,7.60
2019-02-28T13:21:06.197Z,7.60
2019-02-28T13:23:39.455Z,7.60
2019-02-28T13:26:08.828Z,7.60
2019-02-28T13:28:38.174Z,7.60
2019-02-28T13:31:15.089Z,7.60
2019-02-28T13:33:48.679Z,7.70
2019-02-28T13:36:18.414Z,7.60
2019-02-28T13:38:49.543Z,7.60
2019-02-28T13:41:22.122Z,7.60
2019-02-28T13:43:54.734Z,7.60
2019-02-28T13:46:24.451Z,7.60
2019-02-28T13:48:53.321Z,7.60
2019-02-28T13:51:22.843Z,7.60
2019-02-28T13:53:53.048Z,7.60
2019-02-28T13:56:24.160Z,7.60
2019-02-28T13:58:56.874Z,7.60
2019-02-28T14:01:27.041Z,7.60
2019-02-28T14:03:56.328Z,7.60
2019-02-28T14:06:28.057Z,7.60
2019-02-28T14:08:58.822Z,7.60
2019-02-28T14:11:28.331Z,7.70
2019-02-28T14:13:57.545Z,7.70
2019-02-28T14:16:27.618Z,7.80
2019-02-28T14:18:57.470Z,7.80
2019-02-28T14:21:26.997Z,7.80
2019-02-28T14:23:56.783Z,7.80
2019-02-28T14:26:31.109Z,7.80
2019-02-28T14:29:00.891Z,7.80
2019-02-28T14:31:32.908Z,7.80
2019-02-28T14:34:01.713Z,7.80
2019-02-28T14:36:31.330Z,7.70
2019-02-28T14:39:04.637Z,7.70
2019-02-28T14:41:32.722Z,7.70
2019-02-28T14:44:01.745Z,7.70
2019-02-28T14:46:30.946Z,7.70
2019-02-28T14:49:00.083Z,7.60
2019-02-28T14:51:29.425Z,7.60
2019-02-28T14:54:01.019Z,7.60
2019-02-28T14:56:30.682Z,7.60
2019-02-28T14:59:00.485Z,7.60
2019-02-28T15:01:29.752Z,7.50
2019-02-28T15:04:02.608Z,7.50
2019-02-28T15:06:34.067Z,7.50
2019-02-28T15:09:05.664Z,7.50
2019-02-28T15:11:34.952Z,7.50
2019-02-28T15:14:05.660Z,7.50
2019-02-28T15:16:34.522Z,7.40
2019-02-28T15:19:03.515Z,7.40
2019-02-28T15:21:32.962Z,7.40
2019-02-28T15:24:01.848Z,7.40
2019-02-28T15:26:33.037Z,7.40
2019-02-28T15:29:02.996Z,7.40
2019-02-28T15:31:32.378Z,7.40
2019-02-28T15:34:02.238Z,7.40
2019-02-28T15:36:33.590Z,7.40
2019-02-28T15:39:02.683Z,7.40
2019-02-28T15:41:33.887Z,7.40
2019-02-28T15:44:06.966Z,7.30
2019-02-28T15:46:36.022Z,7.30
2019-02-28T15:49:06.562Z,7.30
2019-02-28T15:51:35.906Z,7.30
2019-02-28T15:54:05.844Z,7.30
2019-02-28T15:56:34.904Z,7.20
2019-02-28T15:59:07.208Z,7.20
2019-02-28T16:01:37.049Z,7.20
2019-02-28T16:04:06.539Z,7.20
2019-02-28T16:06:35.398Z,7.20
2019-02-28T16:09:09.048Z,7.20
2019-02-28T16:11:40.953Z,7.20
2019-02-28T16:14:14.508Z,7.20
2019-02-28T16:16:40.944Z,7.20
2019-02-28T16:19:15.257Z,7.10
2019-02-28T16:21:44.113Z,7.10
2019-02-28T16:24:13.680Z,7.10
2019-02-28T16:26:42.567Z,7.10
2019-02-28T16:29:14.801Z,7.10
2019-02-28T16:31:42.899Z,7.10
2019-02-28T16:34:11.804Z,7.10
2019-02-28T16:36:41.249Z,7.10
2019-02-28T16:39:11.575Z,7.10
2019-02-28T16:41:41.886Z,7.10
2019-02-28T16:44:11.021Z,7.00
2019-02-28T16:46:40.994Z,7.00
2019-02-28T16:49:10.576Z,7.00
2019-02-28T16:51:41.124Z,7.00
2019-02-28T16:54:10.720Z,7.00
2019-02-28T16:56:39.923Z,7.00
2019-02-28T16:59:09.268Z,7.00
2019-02-28T17:01:38.740Z,6.90
2019-02-28T17:04:08.309Z,6.90
2019-02-28T17:06:37.309Z,6.90
2019-02-28T17:09:26.690Z,6.90
2019-02-28T17:12:02.243Z,6.90
2019-02-28T17:14:31.496Z,6.90
2019-02-28T17:17:14.075Z,6.80
2019-02-28T17:19:43.240Z,6.80
2019-02-28T17:22:12.096Z,6.80
2019-02-28T17:24:45.734Z,6.80
2019-02-28T17:27:24.600Z,6.80
2019-02-28T17:30:00.455Z,6.80
2019-02-28T17:32:31.325Z,6.80
2019-02-28T17:35:01.115Z,6.80
2019-02-28T17:37:30.739Z,6.80
2019-02-28T17:40:00.044Z,6.80
2019-02-28T17:42:29.206Z,6.80
2019-02-28T17:45:19.715Z,6.70
2019-02-28T17:48:32.377Z,6.70
2019-02-28T17:51:55.319Z,6.70
2019-02-28T17:54:48.411Z,6.70
2019-02-28T17:57:56.882Z,6.70
2019-02-28T18:01:05.159Z,6.70
2019-02-28T18:04:17.220Z,6.70
2019-02-28T18:07:35.397Z,6.70
2019-02-28T18:10:51.675Z,6.70
2019-02-28T18:13:55.295Z,6.70
2019-02-28T18:16:58.293Z,6.70
2019-02-28T18:19:54.251Z,6.70
2019-02-28T18:22:52.054Z,6.70
2019-02-28T18:25:54.631Z,6.70
2019-02-28T18:28:58.120Z,6.70
2019-02-28T18:31:26.355Z,6.70
2019-02-28T18:34:20.246Z,6.60
2019-02-28T18:36:48.097Z,6.60
2019-02-28T18:39:18.708Z,6.60
2019-02-28T18:41:47.788Z,6.60
2019-02-28T18:44:17.242Z,6.60
2019-02-28T18:46:46.372Z,6.60
2019-02-28T18:49:16.854Z,6.60
2019-02-28T18:51:46.015Z,6.50
2019-02-28T18:54:15.275Z,6.50
2019-02-28T18:56:44.210Z,6.50
2019-02-28T18:59:13.515Z,6.50
2019-02-28T19:01:42.689Z,6.50
2019-02-28T19:04:14.171Z,6.50
2019-02-28T19:06:43.825Z,6.50
2019-02-28T19:09:20.266Z,6.50
2019-02-28T19:11:49.824Z,6.50
2019-02-28T19:14:19.385Z,6.50
2019-02-28T19:16:48.812Z,6.50
2019-02-28T19:19:17.738Z,6.50
2019-02-28T19:21:46.655Z,6.50
2019-02-28T19:24:16.397Z,6.50
2019-02-28T19:26:45.761Z,6.50
2019-02-28T19:29:14.837Z,6.50
2019-02-28T19:31:43.794Z,6.50
2019-02-28T19:34:14.657Z,6.50
2019-02-28T19:36:44.199Z,6.50
2019-02-28T19:39:13.727Z,6.50
2019-02-28T19:41:43.804Z,6.50
2019-02-28T19:44:12.709Z,6.50
2019-02-28T19:46:41.875Z,6.50
2019-02-28T19:49:11.657Z,6.50
2019-02-28T19:51:40.796Z,6.50
2019-02-28T19:54:10.261Z,6.50
2019-02-28T19:56:39.155Z,6.50
2019-02-28T19:59:08.877Z,6.50
2019-02-28T20:01:38.116Z,6.50
2019-02-28T20:04:07.275Z,6.50
2019-02-28T20:06:36.970Z,6.50
2019-02-28T20:09:08.301Z,6.50
2019-02-28T20:11:38.067Z,6.50
2019-02-28T20:14:07.732Z,6.50
2019-02-28T20:16:36.846Z,6.50
2019-02-28T20:19:06.609Z,6.50
2019-02-28T20:21:36.170Z,6.50
2019-02-28T20:24:07.398Z,6.50
2019-02-28T20:26:36.294Z,6.50
2019-02-28T20:29:06.217Z,6.60
2019-02-28T20:31:36.875Z,6.50
2019-02-28T20:34:06.236Z,6.50
2019-02-28T20:36:35.496Z,6.50
2019-02-28T20:39:05.914Z,6.50
2019-02-28T20:41:35.695Z,6.50
2019-02-28T20:44:08.032Z,6.50
2019-02-28T20:46:37.120Z,6.50
2019-02-28T20:49:06.598Z,6.50
2019-02-28T20:51:36.145Z,6.50
2019-02-28T20:54:05.176Z,6.50
2019-02-28T20:56:34.012Z,6.50
2019-02-28T20:59:03.364Z,6.50
2019-02-28T21:01:32.743Z,6.50
2019-02-28T21:04:02.013Z,6.50
2019-02-28T21:06:31.190Z,6.50
2019-02-28T21:09:00.586Z,6.50
2019-02-28T21:11:29.761Z,6.50
2019-02-28T21:13:59.143Z,6.50
2019-02-28T21:16:28.020Z,6.50
2019-02-28T21:18:58.289Z,6.40
2019-02-28T21:21:27.949Z,6.40
2019-02-28T21:23:57.355Z,6.40
2019-02-28T21:26:26.774Z,6.40
2019-02-28T21:28:56.101Z,6.40
2019-02-28T21:31:25.417Z,6.30
2019-02-28T21:33:54.783Z,6.30
2019-02-28T21:36:24.324Z,6.30
2019-02-28T21:38:53.375Z,6.30
2019-02-28T21:41:22.310Z,6.30
2019-02-28T21:43:51.274Z,6.30
2019-02-28T21:46:20.640Z,6.30
2019-02-28T21:48:50.093Z,6.30
2019-02-28T21:51:19.518Z,6.30
2019-02-28T21:53:49.679Z,6.30
2019-02-28T21:56:19.145Z,6.30
2019-02-28T21:58:48.204Z,6.40
2019-02-28T22:01:20.575Z,6.40
2019-02-28T22:03:52.039Z,6.40
2019-02-28T22:06:20.955Z,6.40
2019-02-28T22:08:50.691Z,6.40
2019-02-28T22:11:20.406Z,6.50
2019-02-28T22:13:49.368Z,6.50
2019-02-28T22:16:18.567Z,6.40
2019-02-28T22:18:47.803Z,6.40
2019-02-28T22:21:16.990Z,6.40
2019-02-28T22:23:46.107Z,6.40
2019-02-28T22:26:18.656Z,6.50
2019-02-28T22:28:47.524Z,6.50
2019-02-28T22:31:47.586Z,6.50
2019-02-28T22:34:25.514Z,6.50
2019-02-28T22:36:56.526Z,6.60
2019-02-28T22:39:25.831Z,6.60
2019-02-28T22:41:55.653Z,6.60
2019-02-28T22:44:25.271Z,6.60
2019-02-28T22:46:54.894Z,6.60
2019-02-28T22:49:24.217Z,6.60
2019-02-28T22:51:53.642Z,6.60
2019-02-28T22:54:23.396Z,6.60
2019-02-28T22:56:53.005Z,6.70
2019-02-28T22:59:22.269Z,6.70
2019-02-28T23:01:51.871Z,6.70
2019-02-28T23:04:21.922Z,6.70
2019-02-28T23:06:51.343Z,6.70
2019-02-28T23:09:22.464Z,6.60
2019-02-28T23:11:52.317Z,6.60
2019-02-28T23:14:21.940Z,6.60
2019-02-28T23:16:51.084Z,6.60
2019-02-28T23:19:20.260Z,6.60
2019-02-28T23:21:49.648Z,6.60
2019-02-28T23:24:18.834Z,6.60
2019-02-28T23:27:23.524Z,6.60
2019-02-28T23:30:14.299Z,6.60
2019-02-28T23:33:04.373Z,6.60
2019-02-28T23:35:41.098Z,6.60
2019-02-28T23:38:10.280Z,6.60
2019-02-28T23:40:40.311Z,6.60
2019-02-28T23:43:09.258Z,6.50
2019-02-28T23:45:38.597Z,6.50
2019-02-28T23:48:07.521Z,6.50
2019-02-28T23:50:36.474Z,6.40
2019-02-28T23:53:05.427Z,6.40
2019-02-28T23:55:34.664Z,6.40
2019-02-28T23:58:03.474Z,6.30
